Terminal Aerodrome Forecast
Issued by NWS Sterling, VA

Home | Current Version | Previous Version | Text Only | Print | Product List | Glossary On
Versions: 1 2 3 4 5 6 7 8 9 10 11 12 13 14 15 16 17 18 19 20 21
526
FTUS41 KLWX 271726
TAFBWI
TAF
KBWI 271726Z 2718/2824 10008KT P6SM SCT250
     FM281000 VRB03KT 5SM BR BKN015
     FM281100 08004KT 5SM BR BKN008
     FM281300 08004KT P6SM SCT030=

USA.gov is the U.S. government's official web portal to all federal, state and local government web resources and services.